sensor_id;sensor_type;location;lat;lon;timestamp;P1;durP1;ratioP1;P2;durP2;ratioP2
21014;SDS011;19207;-23.482;-46.500;2022-12-10T00:01:16;32.70;;;14.27;;
21014;SDS011;19207;-23.482;-46.500;2022-12-10T00:04:03;33.97;;;15.85;;
21014;SDS011;19207;-23.482;-46.500;2022-12-10T00:06:50;29.25;;;14.30;;
21014;SDS011;19207;-23.482;-46.500;2022-12-10T00:09:38;76.10;;;18.33;;
21014;SDS011;19207;-23.482;-46.500;2022-12-10T00:12:25;84.15;;;22.42;;
21014;SDS011;19207;-23.482;-46.500;2022-12-10T00:15:12;76.95;;;20.42;;
21014;SDS011;19207;-23.482;-46.500;2022-12-10T00:17:58;50.83;;;19.42;;
21014;SDS011;19207;-23.482;-46.500;2022-12-10T00:20:45;37.03;;;14.15;;
21014;SDS011;19207;-23.482;-46.500;2022-12-10T00:23:32;36.03;;;14.52;;
21014;SDS011;19207;-23.482;-46.500;2022-12-10T00:26:23;30.48;;;13.20;;
21014;SDS011;19207;-23.482;-46.500;2022-12-10T00:29:10;23.00;;;11.93;;
21014;SDS011;19207;-23.482;-46.500;2022-12-10T00:31:57;28.92;;;12.55;;
21014;SDS011;19207;-23.482;-46.500;2022-12-10T00:34:43;25.77;;;12.70;;
21014;SDS011;19207;-23.482;-46.500;2022-12-10T00:37:30;27.70;;;12.73;;
21014;SDS011;19207;-23.482;-46.500;2022-12-10T00:40:17;43.70;;;13.27;;
21014;SDS011;19207;-23.482;-46.500;2022-12-10T00:43:04;25.50;;;11.98;;
21014;SDS011;19207;-23.482;-46.500;2022-12-10T00:45:50;30.80;;;12.25;;
21014;SDS011;19207;-23.482;-46.500;2022-12-10T00:48:37;29.83;;;12.63;;
21014;SDS011;19207;-23.482;-46.500;2022-12-10T00:51:25;37.72;;;13.15;;
21014;SDS011;19207;-23.482;-46.500;2022-12-10T00:54:11;27.37;;;14.23;;
21014;SDS011;19207;-23.482;-46.500;2022-12-10T00:56:57;32.65;;;14.60;;
21014;SDS011;19207;-23.482;-46.500;2022-12-10T00:59:44;33.65;;;13.75;;
21014;SDS011;19207;-23.482;-46.500;2022-12-10T01:02:31;29.25;;;13.90;;
21014;SDS011;19207;-23.482;-46.500;2022-12-10T01:05:17;30.88;;;13.75;;
21014;SDS011;19207;-23.482;-46.500;2022-12-10T01:08:04;28.35;;;13.68;;
21014;SDS011;19207;-23.482;-46.500;2022-12-10T01:10:54;37.03;;;14.87;;
21014;SDS011;19207;-23.482;-46.500;2022-12-10T01:13:42;32.20;;;14.87;;
21014;SDS011;19207;-23.482;-46.500;2022-12-10T01:16:28;29.50;;;13.75;;
21014;SDS011;19207;-23.482;-46.500;2022-12-10T01:19:15;26.95;;;12.50;;
21014;SDS011;19207;-23.482;-46.500;2022-12-10T01:22:02;27.73;;;12.57;;
21014;SDS011;19207;-23.482;-46.500;2022-12-10T01:24:49;31.83;;;11.30;;
21014;SDS011;19207;-23.482;-46.500;2022-12-10T01:27:36;19.80;;;9.95;;
21014;SDS011;19207;-23.482;-46.500;2022-12-10T01:30:23;23.80;;;9.70;;
21014;SDS011;19207;-23.482;-46.500;2022-12-10T01:33:09;23.10;;;9.80;;
21014;SDS011;19207;-23.482;-46.500;2022-12-10T01:35:57;29.05;;;9.88;;
21014;SDS011;19207;-23.482;-46.500;2022-12-10T01:38:47;22.35;;;9.20;;
21014;SDS011;19207;-23.482;-46.500;2022-12-10T01:41:43;17.55;;;9.18;;
21014;SDS011;19207;-23.482;-46.500;2022-12-10T01:47:16;20.20;;;10.48;;
21014;SDS011;19207;-23.482;-46.500;2022-12-10T01:50:04;22.58;;;9.98;;
21014;SDS011;19207;-23.482;-46.500;2022-12-10T01:52:51;20.92;;;10.55;;
21014;SDS011;19207;-23.482;-46.500;2022-12-10T01:55:48;19.12;;;9.40;;
21014;SDS011;19207;-23.482;-46.500;2022-12-10T01:58:34;17.02;;;9.75;;
21014;SDS011;19207;-23.482;-46.500;2022-12-10T02:04:43;19.80;;;9.48;;
21014;SDS011;19207;-23.482;-46.500;2022-12-10T02:10:41;22.50;;;11.30;;
21014;SDS011;19207;-23.482;-46.500;2022-12-10T02:13:34;19.55;;;10.65;;
21014;SDS011;19207;-23.482;-46.500;2022-12-10T02:16:30;23.08;;;11.12;;
21014;SDS011;19207;-23.482;-46.500;2022-12-10T02:22:17;19.45;;;10.38;;
21014;SDS011;19207;-23.482;-46.500;2022-12-10T02:25:06;20.23;;;10.93;;
21014;SDS011;19207;-23.482;-46.500;2022-12-10T02:30:40;19.65;;;11.20;;
21014;SDS011;19207;-23.482;-46.500;2022-12-10T02:33:27;19.10;;;10.88;;
21014;SDS011;19207;-23.482;-46.500;2022-12-10T02:36:15;27.00;;;11.40;;
21014;SDS011;19207;-23.482;-46.500;2022-12-10T02:39:03;27.65;;;11.25;;
21014;SDS011;19207;-23.482;-46.500;2022-12-10T02:41:53;22.67;;;11.30;;
21014;SDS011;19207;-23.482;-46.500;2022-12-10T02:44:40;28.35;;;12.30;;
21014;SDS011;19207;-23.482;-46.500;2022-12-10T02:47:28;29.20;;;12.20;;
21014;SDS011;19207;-23.482;-46.500;2022-12-10T02:50:15;26.37;;;11.43;;
21014;SDS011;19207;-23.482;-46.500;2022-12-10T02:53:03;22.60;;;11.43;;
21014;SDS011;19207;-23.482;-46.500;2022-12-10T02:55:54;23.15;;;10.90;;
21014;SDS011;19207;-23.482;-46.500;2022-12-10T03:01:52;22.08;;;11.60;;
21014;SDS011;19207;-23.482;-46.500;2022-12-10T03:07:57;32.92;;;11.27;;
21014;SDS011;19207;-23.482;-46.500;2022-12-10T03:13:37;26.33;;;11.50;;
21014;SDS011;19207;-23.482;-46.500;2022-12-10T03:16:28;19.30;;;10.85;;
21014;SDS011;19207;-23.482;-46.500;2022-12-10T03:19:20;21.02;;;10.20;;
21014;SDS011;19207;-23.482;-46.500;2022-12-10T03:22:08;26.52;;;9.88;;
21014;SDS011;19207;-23.482;-46.500;2022-12-10T03:24:55;20.77;;;10.23;;
21014;SDS011;19207;-23.482;-46.500;2022-12-10T03:27:43;30.95;;;11.23;;
21014;SDS011;19207;-23.482;-46.500;2022-12-10T03:30:31;27.23;;;10.82;;
21014;SDS011;19207;-23.482;-46.500;2022-12-10T03:33:19;20.23;;;9.63;;
21014;SDS011;19207;-23.482;-46.500;2022-12-10T03:36:06;25.37;;;9.75;;
21014;SDS011;19207;-23.482;-46.500;2022-12-10T03:38:53;22.67;;;9.80;;
21014;SDS011;19207;-23.482;-46.500;2022-12-10T03:41:40;17.65;;;9.13;;
21014;SDS011;19207;-23.482;-46.500;2022-12-10T03:44:33;22.48;;;9.23;;
21014;SDS011;19207;-23.482;-46.500;2022-12-10T03:47:20;21.77;;;9.52;;
21014;SDS011;19207;-23.482;-46.500;2022-12-10T03:50:06;26.70;;;9.05;;
21014;SDS011;19207;-23.482;-46.500;2022-12-10T03:52:53;23.95;;;8.10;;
21014;SDS011;19207;-23.482;-46.500;2022-12-10T03:55:40;24.90;;;9.85;;
21014;SDS011;19207;-23.482;-46.500;2022-12-10T03:58:26;22.20;;;9.65;;
21014;SDS011;19207;-23.482;-46.500;2022-12-10T04:01:13;24.25;;;9.48;;
21014;SDS011;19207;-23.482;-46.500;2022-12-10T04:04:02;26.08;;;9.77;;
21014;SDS011;19207;-23.482;-46.500;2022-12-10T04:06:49;22.30;;;8.93;;
21014;SDS011;19207;-23.482;-46.500;2022-12-10T04:09:35;26.62;;;9.98;;
21014;SDS011;19207;-23.482;-46.500;2022-12-10T04:12:22;23.08;;;9.68;;
21014;SDS011;19207;-23.482;-46.500;2022-12-10T04:15:09;26.33;;;10.30;;
21014;SDS011;19207;-23.482;-46.500;2022-12-10T04:18:14;25.00;;;9.85;;
21014;SDS011;19207;-23.482;-46.500;2022-12-10T04:21:02;22.00;;;10.13;;
21014;SDS011;19207;-23.482;-46.500;2022-12-10T04:24:08;21.73;;;10.68;;
21014;SDS011;19207;-23.482;-46.500;2022-12-10T04:30:04;23.27;;;11.75;;
21014;SDS011;19207;-23.482;-46.500;2022-12-10T04:32:51;26.98;;;12.18;;
21014;SDS011;19207;-23.482;-46.500;2022-12-10T04:35:37;29.35;;;13.25;;
21014;SDS011;19207;-23.482;-46.500;2022-12-10T04:38:24;31.80;;;13.73;;
21014;SDS011;19207;-23.482;-46.500;2022-12-10T04:41:10;59.33;;;21.83;;
21014;SDS011;19207;-23.482;-46.500;2022-12-10T04:44:00;60.47;;;22.55;;
21014;SDS011;19207;-23.482;-46.500;2022-12-10T04:46:46;50.63;;;19.23;;
21014;SDS011;19207;-23.482;-46.500;2022-12-10T04:49:33;54.80;;;21.80;;
21014;SDS011;19207;-23.482;-46.500;2022-12-10T04:52:20;54.35;;;20.73;;
21014;SDS011;19207;-23.482;-46.500;2022-12-10T04:55:07;56.65;;;20.42;;
21014;SDS011;19207;-23.482;-46.500;2022-12-10T04:57:53;56.80;;;22.05;;
21014;SDS011;19207;-23.482;-46.500;2022-12-10T05:00:40;54.60;;;21.98;;
21014;SDS011;19207;-23.482;-46.500;2022-12-10T05:03:27;53.67;;;22.42;;
21014;SDS011;19207;-23.482;-46.500;2022-12-10T05:06:15;56.83;;;21.08;;
21014;SDS011;19207;-23.482;-46.500;2022-12-10T05:09:02;44.40;;;17.05;;
21014;SDS011;19207;-23.482;-46.500;2022-12-10T05:11:49;42.47;;;17.65;;
21014;SDS011;19207;-23.482;-46.500;2022-12-10T05:14:35;52.95;;;19.48;;
21014;SDS011;19207;-23.482;-46.500;2022-12-10T05:17:22;48.13;;;18.62;;
21014;SDS011;19207;-23.482;-46.500;2022-12-10T05:20:09;54.95;;;18.80;;
21014;SDS011;19207;-23.482;-46.500;2022-12-10T05:22:55;46.05;;;19.25;;
21014;SDS011;19207;-23.482;-46.500;2022-12-10T05:26:05;46.95;;;20.02;;
21014;SDS011;19207;-23.482;-46.500;2022-12-10T05:28:53;48.40;;;19.62;;
21014;SDS011;19207;-23.482;-46.500;2022-12-10T05:31:41;39.17;;;19.10;;
21014;SDS011;19207;-23.482;-46.500;2022-12-10T05:34:27;44.15;;;19.10;;
21014;SDS011;19207;-23.482;-46.500;2022-12-10T05:37:14;47.42;;;17.92;;
21014;SDS011;19207;-23.482;-46.500;2022-12-10T05:40:00;50.45;;;19.75;;
21014;SDS011;19207;-23.482;-46.500;2022-12-10T05:42:47;53.45;;;19.15;;
21014;SDS011;19207;-23.482;-46.500;2022-12-10T05:45:33;51.40;;;20.80;;
21014;SDS011;19207;-23.482;-46.500;2022-12-10T05:48:20;44.90;;;19.45;;
21014;SDS011;19207;-23.482;-46.500;2022-12-10T05:51:07;42.75;;;18.98;;
21014;SDS011;19207;-23.482;-46.500;2022-12-10T05:53:54;44.50;;;19.08;;
21014;SDS011;19207;-23.482;-46.500;2022-12-10T05:56:41;60.78;;;19.92;;
21014;SDS011;19207;-23.482;-46.500;2022-12-10T05:59:28;53.60;;;20.50;;
21014;SDS011;19207;-23.482;-46.500;2022-12-10T06:02:14;50.95;;;20.00;;
21014;SDS011;19207;-23.482;-46.500;2022-12-10T06:05:01;58.35;;;20.92;;
21014;SDS011;19207;-23.482;-46.500;2022-12-10T06:07:48;60.85;;;21.08;;
21014;SDS011;19207;-23.482;-46.500;2022-12-10T06:10:35;54.78;;;21.75;;
21014;SDS011;19207;-23.482;-46.500;2022-12-10T06:13:21;50.72;;;21.42;;
21014;SDS011;19207;-23.482;-46.500;2022-12-10T06:16:09;68.62;;;25.88;;
21014;SDS011;19207;-23.482;-46.500;2022-12-10T06:18:56;73.80;;;31.00;;
21014;SDS011;19207;-23.482;-46.500;2022-12-10T06:21:43;83.80;;;32.60;;
21014;SDS011;19207;-23.482;-46.500;2022-12-10T06:24:30;86.07;;;33.60;;
21014;SDS011;19207;-23.482;-46.500;2022-12-10T06:27:16;91.72;;;36.28;;
21014;SDS011;19207;-23.482;-46.500;2022-12-10T06:30:03;97.37;;;36.85;;
21014;SDS011;19207;-23.482;-46.500;2022-12-10T06:32:50;103.50;;;38.28;;
21014;SDS011;19207;-23.482;-46.500;2022-12-10T06:35:37;99.40;;;40.67;;
21014;SDS011;19207;-23.482;-46.500;2022-12-10T06:38:23;106.63;;;41.15;;
21014;SDS011;19207;-23.482;-46.500;2022-12-10T06:41:11;101.90;;;38.90;;
21014;SDS011;19207;-23.482;-46.500;2022-12-10T06:43:58;117.40;;;40.90;;
21014;SDS011;19207;-23.482;-46.500;2022-12-10T06:46:44;119.68;;;41.55;;
21014;SDS011;19207;-23.482;-46.500;2022-12-10T06:49:31;125.97;;;43.47;;
21014;SDS011;19207;-23.482;-46.500;2022-12-10T06:52:18;134.77;;;49.08;;
21014;SDS011;19207;-23.482;-46.500;2022-12-10T06:55:04;148.98;;;49.60;;
21014;SDS011;19207;-23.482;-46.500;2022-12-10T06:57:52;151.55;;;45.97;;
21014;SDS011;19207;-23.482;-46.500;2022-12-10T07:00:39;131.02;;;42.13;;
21014;SDS011;19207;-23.482;-46.500;2022-12-10T07:03:25;133.30;;;41.45;;
21014;SDS011;19207;-23.482;-46.500;2022-12-10T07:06:12;138.43;;;41.83;;
21014;SDS011;19207;-23.482;-46.500;2022-12-10T07:08:59;154.60;;;42.72;;
21014;SDS011;19207;-23.482;-46.500;2022-12-10T07:11:45;144.55;;;42.75;;
21014;SDS011;19207;-23.482;-46.500;2022-12-10T07:14:32;148.62;;;42.60;;
21014;SDS011;19207;-23.482;-46.500;2022-12-10T07:17:19;156.10;;;43.87;;
21014;SDS011;19207;-23.482;-46.500;2022-12-10T07:20:05;146.00;;;42.95;;
21014;SDS011;19207;-23.482;-46.500;2022-12-10T07:22:53;158.32;;;46.60;;
21014;SDS011;19207;-23.482;-46.500;2022-12-10T07:25:39;174.65;;;44.95;;
21014;SDS011;19207;-23.482;-46.500;2022-12-10T07:28:26;164.35;;;45.33;;
21014;SDS011;19207;-23.482;-46.500;2022-12-10T07:31:13;157.05;;;43.30;;
21014;SDS011;19207;-23.482;-46.500;2022-12-10T07:33:59;168.60;;;44.20;;
21014;SDS011;19207;-23.482;-46.500;2022-12-10T07:36:46;190.50;;;47.28;;
21014;SDS011;19207;-23.482;-46.500;2022-12-10T07:39:33;174.32;;;48.03;;
21014;SDS011;19207;-23.482;-46.500;2022-12-10T07:42:20;226.25;;;61.28;;
21014;SDS011;19207;-23.482;-46.500;2022-12-10T07:45:07;257.77;;;62.50;;
21014;SDS011;19207;-23.482;-46.500;2022-12-10T07:47:53;223.50;;;64.05;;
21014;SDS011;19207;-23.482;-46.500;2022-12-10T07:50:40;202.40;;;55.35;;
21014;SDS011;19207;-23.482;-46.500;2022-12-10T07:53:27;184.63;;;50.92;;
21014;SDS011;19207;-23.482;-46.500;2022-12-10T07:56:14;164.40;;;46.92;;
21014;SDS011;19207;-23.482;-46.500;2022-12-10T07:59:01;167.62;;;45.80;;
21014;SDS011;19207;-23.482;-46.500;2022-12-10T08:01:48;148.93;;;41.70;;
21014;SDS011;19207;-23.482;-46.500;2022-12-10T08:04:34;153.70;;;42.25;;
21014;SDS011;19207;-23.482;-46.500;2022-12-10T08:07:22;139.43;;;38.90;;
21014;SDS011;19207;-23.482;-46.500;2022-12-10T08:10:09;162.65;;;41.55;;
21014;SDS011;19207;-23.482;-46.500;2022-12-10T08:12:56;140.45;;;39.00;;
21014;SDS011;19207;-23.482;-46.500;2022-12-10T08:15:43;157.25;;;40.05;;
21014;SDS011;19207;-23.482;-46.500;2022-12-10T08:18:30;132.48;;;38.50;;
21014;SDS011;19207;-23.482;-46.500;2022-12-10T08:21:18;123.25;;;36.85;;
21014;SDS011;19207;-23.482;-46.500;2022-12-10T08:24:05;127.68;;;37.10;;
21014;SDS011;19207;-23.482;-46.500;2022-12-10T08:26:51;118.50;;;35.42;;
21014;SDS011;19207;-23.482;-46.500;2022-12-10T08:29:38;115.85;;;37.22;;
21014;SDS011;19207;-23.482;-46.500;2022-12-10T08:32:24;110.05;;;36.20;;
21014;SDS011;19207;-23.482;-46.500;2022-12-10T08:35:11;102.80;;;34.58;;
21014;SDS011;19207;-23.482;-46.500;2022-12-10T08:37:57;128.48;;;35.72;;
21014;SDS011;19207;-23.482;-46.500;2022-12-10T08:40:44;114.93;;;38.50;;
21014;SDS011;19207;-23.482;-46.500;2022-12-10T08:43:31;130.05;;;40.97;;
21014;SDS011;19207;-23.482;-46.500;2022-12-10T08:46:17;146.05;;;40.58;;
21014;SDS011;19207;-23.482;-46.500;2022-12-10T08:49:04;113.93;;;37.03;;
21014;SDS011;19207;-23.482;-46.500;2022-12-10T08:51:53;113.85;;;36.05;;
21014;SDS011;19207;-23.482;-46.500;2022-12-10T08:54:40;107.50;;;32.78;;
21014;SDS011;19207;-23.482;-46.500;2022-12-10T08:57:27;84.50;;;29.60;;
21014;SDS011;19207;-23.482;-46.500;2022-12-10T09:00:13;70.72;;;25.23;;
21014;SDS011;19207;-23.482;-46.500;2022-12-10T09:03:00;68.35;;;25.08;;
21014;SDS011;19207;-23.482;-46.500;2022-12-10T09:05:47;66.07;;;22.90;;
21014;SDS011;19207;-23.482;-46.500;2022-12-10T09:08:34;66.25;;;19.70;;
21014;SDS011;19207;-23.482;-46.500;2022-12-10T09:11:26;50.88;;;19.70;;
21014;SDS011;19207;-23.482;-46.500;2022-12-10T09:14:12;51.83;;;17.98;;
21014;SDS011;19207;-23.482;-46.500;2022-12-10T09:17:01;113.50;;;20.90;;
21014;SDS011;19207;-23.482;-46.500;2022-12-10T09:19:48;45.83;;;16.17;;
21014;SDS011;19207;-23.482;-46.500;2022-12-10T09:22:35;40.00;;;16.40;;
21014;SDS011;19207;-23.482;-46.500;2022-12-10T09:25:22;35.50;;;16.10;;
21014;SDS011;19207;-23.482;-46.500;2022-12-10T09:28:09;37.80;;;15.65;;
21014;SDS011;19207;-23.482;-46.500;2022-12-10T09:30:56;41.17;;;15.68;;
21014;SDS011;19207;-23.482;-46.500;2022-12-10T09:33:43;46.37;;;18.12;;
21014;SDS011;19207;-23.482;-46.500;2022-12-10T09:36:30;46.90;;;18.77;;
21014;SDS011;19207;-23.482;-46.500;2022-12-10T09:39:16;38.20;;;18.30;;
21014;SDS011;19207;-23.482;-46.500;2022-12-10T09:48:01;38.42;;;16.73;;
21014;SDS011;19207;-23.482;-46.500;2022-12-10T09:53:38;35.70;;;15.52;;
21014;SDS011;19207;-23.482;-46.500;2022-12-10T09:56:34;37.47;;;15.05;;
21014;SDS011;19207;-23.482;-46.500;2022-12-10T09:59:23;38.40;;;16.92;;
21014;SDS011;19207;-23.482;-46.500;2022-12-10T10:07:55;32.38;;;14.50;;
21014;SDS011;19207;-23.482;-46.500;2022-12-10T10:10:42;33.40;;;13.82;;
21014;SDS011;19207;-23.482;-46.500;2022-12-10T10:13:36;32.38;;;13.88;;
21014;SDS011;19207;-23.482;-46.500;2022-12-10T10:19:33;32.50;;;13.77;;
21014;SDS011;19207;-23.482;-46.500;2022-12-10T10:22:22;30.85;;;14.25;;
21014;SDS011;19207;-23.482;-46.500;2022-12-10T10:25:13;36.30;;;14.63;;
21014;SDS011;19207;-23.482;-46.500;2022-12-10T10:28:01;37.20;;;14.00;;
21014;SDS011;19207;-23.482;-46.500;2022-12-10T10:30:48;34.78;;;13.65;;
21014;SDS011;19207;-23.482;-46.500;2022-12-10T10:33:37;32.83;;;14.15;;
21014;SDS011;19207;-23.482;-46.500;2022-12-10T10:36:35;24.23;;;11.88;;
21014;SDS011;19207;-23.482;-46.500;2022-12-10T10:42:08;34.80;;;13.85;;
21014;SDS011;19207;-23.482;-46.500;2022-12-10T10:44:55;33.78;;;13.98;;
21014;SDS011;19207;-23.482;-46.500;2022-12-10T10:47:42;35.67;;;13.38;;
21014;SDS011;19207;-23.482;-46.500;2022-12-10T10:50:29;40.80;;;15.40;;
21014;SDS011;19207;-23.482;-46.500;2022-12-10T10:53:22;28.05;;;14.20;;
21014;SDS011;19207;-23.482;-46.500;2022-12-10T10:56:13;33.78;;;13.60;;
21014;SDS011;19207;-23.482;-46.500;2022-12-10T10:59:06;26.23;;;13.05;;
21014;SDS011;19207;-23.482;-46.500;2022-12-10T11:01:54;42.62;;;14.40;;
21014;SDS011;19207;-23.482;-46.500;2022-12-10T11:04:51;29.80;;;13.20;;
21014;SDS011;19207;-23.482;-46.500;2022-12-10T11:07:39;30.10;;;14.38;;
21014;SDS011;19207;-23.482;-46.500;2022-12-10T11:10:25;36.30;;;14.65;;
21014;SDS011;19207;-23.482;-46.500;2022-12-10T11:13:22;32.72;;;14.38;;
21014;SDS011;19207;-23.482;-46.500;2022-12-10T11:16:17;33.47;;;13.55;;
21014;SDS011;19207;-23.482;-46.500;2022-12-10T11:19:04;32.70;;;11.77;;
21014;SDS011;19207;-23.482;-46.500;2022-12-10T11:21:51;33.33;;;11.70;;
21014;SDS011;19207;-23.482;-46.500;2022-12-10T11:24:37;34.83;;;12.80;;
21014;SDS011;19207;-23.482;-46.500;2022-12-10T11:30:12;25.10;;;13.20;;
21014;SDS011;19207;-23.482;-46.500;2022-12-10T11:33:07;26.17;;;11.60;;
21014;SDS011;19207;-23.482;-46.500;2022-12-10T11:39:10;27.48;;;12.48;;
21014;SDS011;19207;-23.482;-46.500;2022-12-10T11:45:24;25.33;;;10.88;;
21014;SDS011;19207;-23.482;-46.500;2022-12-10T11:51:06;21.65;;;10.90;;
21014;SDS011;19207;-23.482;-46.500;2022-12-10T11:54:07;22.42;;;10.55;;
21014;SDS011;19207;-23.482;-46.500;2022-12-10T11:57:17;34.35;;;11.88;;
21014;SDS011;19207;-23.482;-46.500;2022-12-10T12:00:24;23.27;;;11.73;;
21014;SDS011;19207;-23.482;-46.500;2022-12-10T12:17:27;29.98;;;12.75;;
21014;SDS011;19207;-23.482;-46.500;2022-12-10T12:20:29;27.13;;;11.55;;
21014;SDS011;19207;-23.482;-46.500;2022-12-10T12:23:25;26.65;;;12.32;;
21014;SDS011;19207;-23.482;-46.500;2022-12-10T12:26:13;21.45;;;11.48;;
21014;SDS011;19207;-23.482;-46.500;2022-12-10T12:32:03;28.05;;;11.88;;
21014;SDS011;19207;-23.482;-46.500;2022-12-10T12:34:56;24.27;;;11.60;;
21014;SDS011;19207;-23.482;-46.500;2022-12-10T12:37:53;24.80;;;10.93;;
21014;SDS011;19207;-23.482;-46.500;2022-12-10T12:40:43;25.95;;;11.88;;
21014;SDS011;19207;-23.482;-46.500;2022-12-10T12:46:44;24.35;;;11.63;;
21014;SDS011;19207;-23.482;-46.500;2022-12-10T12:49:32;25.80;;;12.00;;
21014;SDS011;19207;-23.482;-46.500;2022-12-10T12:58:34;30.00;;;11.07;;
21014;SDS011;19207;-23.482;-46.500;2022-12-10T13:01:26;23.45;;;11.98;;
21014;SDS011;19207;-23.482;-46.500;2022-12-10T13:04:14;23.62;;;11.85;;
21014;SDS011;19207;-23.482;-46.500;2022-12-10T13:13:07;24.25;;;11.32;;
21014;SDS011;19207;-23.482;-46.500;2022-12-10T13:15:53;23.80;;;10.73;;
21014;SDS011;19207;-23.482;-46.500;2022-12-10T13:18:40;22.15;;;10.65;;
21014;SDS011;19207;-23.482;-46.500;2022-12-10T13:21:29;26.17;;;10.25;;
21014;SDS011;19207;-23.482;-46.500;2022-12-10T13:24:17;22.90;;;9.48;;
21014;SDS011;19207;-23.482;-46.500;2022-12-10T13:29:55;19.48;;;9.90;;
21014;SDS011;19207;-23.482;-46.500;2022-12-10T13:32:43;19.02;;;8.98;;
21014;SDS011;19207;-23.482;-46.500;2022-12-10T13:35:30;20.83;;;9.20;;
21014;SDS011;19207;-23.482;-46.500;2022-12-10T13:38:19;18.35;;;8.38;;
21014;SDS011;19207;-23.482;-46.500;2022-12-10T13:41:07;20.80;;;8.35;;
21014;SDS011;19207;-23.482;-46.500;2022-12-10T13:49:59;12.13;;;6.72;;
21014;SDS011;19207;-23.482;-46.500;2022-12-10T13:53:01;16.52;;;7.62;;
21014;SDS011;19207;-23.482;-46.500;2022-12-10T13:56:12;15.48;;;7.68;;
21014;SDS011;19207;-23.482;-46.500;2022-12-10T13:59:15;13.05;;;6.68;;
21014;SDS011;19207;-23.482;-46.500;2022-12-10T14:08:01;8.05;;;4.65;;
21014;SDS011;19207;-23.482;-46.500;2022-12-10T14:10:48;19.12;;;4.80;;
21014;SDS011;19207;-23.482;-46.500;2022-12-10T14:13:40;10.80;;;4.43;;
21014;SDS011;19207;-23.482;-46.500;2022-12-10T14:16:30;9.85;;;4.80;;
21014;SDS011;19207;-23.482;-46.500;2022-12-10T14:19:18;11.30;;;4.20;;
21014;SDS011;19207;-23.482;-46.500;2022-12-10T14:22:05;14.35;;;4.30;;
21014;SDS011;19207;-23.482;-46.500;2022-12-10T14:24:52;8.80;;;4.43;;
21014;SDS011;19207;-23.482;-46.500;2022-12-10T14:27:39;9.40;;;4.57;;
21014;SDS011;19207;-23.482;-46.500;2022-12-10T14:30:26;9.20;;;4.90;;
21014;SDS011;19207;-23.482;-46.500;2022-12-10T14:33:17;7.80;;;4.40;;
21014;SDS011;19207;-23.482;-46.500;2022-12-10T14:36:04;10.88;;;4.68;;
21014;SDS011;19207;-23.482;-46.500;2022-12-10T14:38:51;8.10;;;4.32;;
21014;SDS011;19207;-23.482;-46.500;2022-12-10T14:41:38;5.70;;;4.47;;
21014;SDS011;19207;-23.482;-46.500;2022-12-10T14:44:25;12.82;;;4.53;;
21014;SDS011;19207;-23.482;-46.500;2022-12-10T14:47:14;15.05;;;4.55;;
21014;SDS011;19207;-23.482;-46.500;2022-12-10T14:50:01;7.95;;;4.53;;
21014;SDS011;19207;-23.482;-46.500;2022-12-10T14:52:51;6.75;;;4.37;;
21014;SDS011;19207;-23.482;-46.500;2022-12-10T14:55:38;7.82;;;4.60;;
21014;SDS011;19207;-23.482;-46.500;2022-12-10T14:58:29;9.10;;;4.40;;
21014;SDS011;19207;-23.482;-46.500;2022-12-10T15:01:22;8.02;;;4.25;;
21014;SDS011;19207;-23.482;-46.500;2022-12-10T15:04:13;5.45;;;4.12;;
21014;SDS011;19207;-23.482;-46.500;2022-12-10T15:07:00;9.90;;;4.53;;
21014;SDS011;19207;-23.482;-46.500;2022-12-10T15:09:48;10.65;;;4.68;;
21014;SDS011;19207;-23.482;-46.500;2022-12-10T15:12:41;6.50;;;4.40;;
21014;SDS011;19207;-23.482;-46.500;2022-12-10T15:15:36;8.90;;;4.40;;
21014;SDS011;19207;-23.482;-46.500;2022-12-10T15:18:27;8.40;;;4.20;;
21014;SDS011;19207;-23.482;-46.500;2022-12-10T15:21:16;5.12;;;4.00;;
21014;SDS011;19207;-23.482;-46.500;2022-12-10T15:24:20;7.32;;;4.57;;
21014;SDS011;19207;-23.482;-46.500;2022-12-10T15:27:51;6.12;;;4.28;;
21014;SDS011;19207;-23.482;-46.500;2022-12-10T15:30:21;8.63;;;4.47;;
21014;SDS011;19207;-23.482;-46.500;2022-12-10T15:39:33;7.60;;;4.50;;
21014;SDS011;19207;-23.482;-46.500;2022-12-10T15:45:25;6.97;;;4.25;;
21014;SDS011;19207;-23.482;-46.500;2022-12-10T15:48:11;6.47;;;4.15;;
21014;SDS011;19207;-23.482;-46.500;2022-12-10T15:50:58;8.27;;;4.03;;
21014;SDS011;19207;-23.482;-46.500;2022-12-10T15:53:45;9.20;;;4.05;;
21014;SDS011;19207;-23.482;-46.500;2022-12-10T15:56:31;7.45;;;4.15;;
21014;SDS011;19207;-23.482;-46.500;2022-12-10T15:59:18;8.00;;;4.50;;
21014;SDS011;19207;-23.482;-46.500;2022-12-10T16:02:10;5.93;;;3.85;;
21014;SDS011;19207;-23.482;-46.500;2022-12-10T16:05:14;10.77;;;4.12;;
21014;SDS011;19207;-23.482;-46.500;2022-12-10T16:11:13;9.13;;;4.55;;
21014;SDS011;19207;-23.482;-46.500;2022-12-10T16:14:01;9.35;;;4.70;;
21014;SDS011;19207;-23.482;-46.500;2022-12-10T16:16:48;6.70;;;4.80;;
21014;SDS011;19207;-23.482;-46.500;2022-12-10T16:19:35;8.82;;;4.62;;
21014;SDS011;19207;-23.482;-46.500;2022-12-10T16:22:22;6.75;;;4.53;;
21014;SDS011;19207;-23.482;-46.500;2022-12-10T16:25:09;4.78;;;3.72;;
21014;SDS011;19207;-23.482;-46.500;2022-12-10T16:27:56;5.70;;;3.90;;
21014;SDS011;19207;-23.482;-46.500;2022-12-10T16:30:47;5.47;;;4.05;;
21014;SDS011;19207;-23.482;-46.500;2022-12-10T16:33:36;10.05;;;4.12;;
21014;SDS011;19207;-23.482;-46.500;2022-12-10T16:36:23;7.15;;;4.30;;
21014;SDS011;19207;-23.482;-46.500;2022-12-10T16:39:10;10.32;;;4.30;;
21014;SDS011;19207;-23.482;-46.500;2022-12-10T16:41:59;8.90;;;3.83;;
21014;SDS011;19207;-23.482;-46.500;2022-12-10T16:44:45;9.02;;;4.15;;
21014;SDS011;19207;-23.482;-46.500;2022-12-10T16:47:32;8.43;;;4.15;;
21014;SDS011;19207;-23.482;-46.500;2022-12-10T16:50:19;6.72;;;4.32;;
21014;SDS011;19207;-23.482;-46.500;2022-12-10T16:56:01;7.45;;;4.00;;
21014;SDS011;19207;-23.482;-46.500;2022-12-10T16:58:48;7.28;;;4.03;;
21014;SDS011;19207;-23.482;-46.500;2022-12-10T17:01:34;5.78;;;3.65;;
21014;SDS011;19207;-23.482;-46.500;2022-12-10T17:04:21;7.97;;;4.10;;
21014;SDS011;19207;-23.482;-46.500;2022-12-10T17:07:11;15.77;;;8.35;;
21014;SDS011;19207;-23.482;-46.500;2022-12-10T17:09:57;35.80;;;15.57;;
21014;SDS011;19207;-23.482;-46.500;2022-12-10T17:12:44;13.05;;;7.10;;
21014;SDS011;19207;-23.482;-46.500;2022-12-10T17:15:30;139.88;;;51.92;;
21014;SDS011;19207;-23.482;-46.500;2022-12-10T17:18:17;46.00;;;21.10;;
21014;SDS011;19207;-23.482;-46.500;2022-12-10T17:21:04;10.05;;;4.37;;
21014;SDS011;19207;-23.482;-46.500;2022-12-10T17:23:51;7.22;;;4.15;;
21014;SDS011;19207;-23.482;-46.500;2022-12-10T17:26:39;8.45;;;3.97;;
21014;SDS011;19207;-23.482;-46.500;2022-12-10T17:29:29;5.87;;;3.70;;
21014;SDS011;19207;-23.482;-46.500;2022-12-10T17:32:15;8.57;;;3.90;;
21014;SDS011;19207;-23.482;-46.500;2022-12-10T17:35:03;6.47;;;4.03;;
21014;SDS011;19207;-23.482;-46.500;2022-12-10T17:37:50;8.10;;;3.90;;
21014;SDS011;19207;-23.482;-46.500;2022-12-10T17:40:38;7.30;;;3.90;;
21014;SDS011;19207;-23.482;-46.500;2022-12-10T17:43:24;5.35;;;4.05;;
21014;SDS011;19207;-23.482;-46.500;2022-12-10T17:46:11;6.85;;;4.45;;
21014;SDS011;19207;-23.482;-46.500;2022-12-10T17:48:58;4.93;;;3.62;;
21014;SDS011;19207;-23.482;-46.500;2022-12-10T17:51:46;5.15;;;4.07;;